Time;durP1;ratioP1;P1;durP2;ratioP2;P2;SDS_P1;SDS_P2;PMS_P1;PMS_P2;Temp;Humidity;BMP_temperature;BMP_pressure;BME280_temperature;BME280_humidity;BME280_pressure;Samples;Min_cycle;Max_cycle;Signal;HPM_P1;HPM_P2
2022/11/28 00:02:31;;;;;;;16.55;12.78;;;25.40;99.90;;;;;;1914438;73;21634;-69
2022/11/28 00:05:02;;;;;;;21.30;14.33;;;25.50;99.90;;;;;;1920342;73;21088;-68
2022/11/28 00:07:33;;;;;;;19.62;13.10;;;25.50;99.90;;;;;;1943923;73;21229;-68
2022/11/28 00:10:09;;;;;;;16.97;12.47;;;25.50;99.90;;;;;;1924405;73;21044;-69
2022/11/28 00:12:40;;;;;;;16.97;11.68;;;25.50;99.90;;;;;;1913161;74;21178;-69
2022/11/28 00:15:12;;;;;;;16.52;11.22;;;25.50;99.90;;;;;;1903566;74;21677;-70
2022/11/28 00:17:43;;;;;;;19.50;11.50;;;25.60;99.90;;;;;;1891595;74;21083;-70
2022/11/28 00:20:14;;;;;;;15.63;12.23;;;25.60;99.90;;;;;;1910584;73;21153;-70
2022/11/28 00:22:46;;;;;;;16.45;11.65;;;25.60;99.90;;;;;;1901563;74;21189;-69
2022/11/28 00:25:17;;;;;;;15.72;11.60;;;25.60;99.90;;;;;;1900137;73;21088;-69
2022/11/28 00:27:49;;;;;;;18.90;11.48;;;25.60;99.90;;;;;;1913325;73;21662;-69
2022/11/28 00:30:20;;;;;;;15.15;11.35;;;25.60;99.90;;;;;;1891344;74;21146;-69
2022/11/28 00:32:51;;;;;;;13.98;11.10;;;25.60;99.90;;;;;;1913907;73;21428;-70
2022/11/28 00:35:22;;;;;;;16.62;11.30;;;25.60;99.90;;;;;;1907871;73;21228;-69
2022/11/28 00:37:53;;;;;;;16.20;10.65;;;25.70;99.90;;;;;;1909465;73;21209;-69
2022/11/28 00:40:24;;;;;;;15.58;10.88;;;25.70;99.90;;;;;;1907556;73;21142;-69
2022/11/28 00:42:56;;;;;;;14.25;11.00;;;25.70;99.90;;;;;;1897721;74;21067;-69
2022/11/28 00:45:27;;;;;;;14.58;9.68;;;25.80;99.90;;;;;;1892580;73;21201;-70
2022/11/28 00:47:58;;;;;;;15.28;9.95;;;25.80;99.90;;;;;;1907408;73;21141;-69
2022/11/28 00:50:29;;;;;;;15.18;10.03;;;25.80;99.90;;;;;;1894299;74;21170;-70
2022/11/28 00:53:02;;;;;;;14.53;9.73;;;25.90;99.90;;;;;;1890943;73;21208;-68
2022/11/28 00:55:33;;;;;;;12.53;8.10;;;25.90;99.90;;;;;;1898162;74;21464;-71
2022/11/28 00:58:04;;;;;;;11.55;7.25;;;25.90;99.90;;;;;;1889998;74;21172;-69
2022/11/28 01:00:36;;;;;;;11.75;7.62;;;26.00;99.90;;;;;;1919253;73;21142;-69
2022/11/28 01:03:07;;;;;;;11.38;8.03;;;26.00;99.90;;;;;;1921227;74;21126;-68
2022/11/28 01:05:42;;;;;;;10.98;8.45;;;26.10;99.90;;;;;;1901742;74;21192;-69
2022/11/28 01:08:14;;;;;;;14.43;9.10;;;26.10;99.90;;;;;;1899180;74;21195;-70
2022/11/28 01:10:46;;;;;;;12.00;8.48;;;26.10;99.90;;;;;;1906343;74;21160;-70
2022/11/28 01:13:18;;;;;;;8.98;7.58;;;26.20;99.90;;;;;;1901042;74;21119;-71
2022/11/28 01:15:51;;;;;;;13.05;6.78;;;26.20;99.90;;;;;;1914307;73;21154;-69
2022/11/28 01:18:23;;;;;;;8.98;6.47;;;26.30;99.90;;;;;;1928258;73;21080;-69
2022/11/28 01:20:54;;;;;;;10.65;6.80;;;26.30;99.90;;;;;;1914443;74;21116;-69
2022/11/28 01:23:25;;;;;;;10.18;6.47;;;26.30;99.90;;;;;;1905976;74;21207;-69
2022/11/28 01:25:56;;;;;;;9.60;6.75;;;26.40;99.90;;;;;;1887219;75;21082;-70
2022/11/28 01:28:27;;;;;;;8.60;6.08;;;26.40;99.90;;;;;;1894600;74;21140;-69
2022/11/28 01:31:08;;;;;;;10.35;6.87;;;26.50;99.90;;;;;;1870728;75;21072;-69
2022/11/28 01:33:40;;;;;;;12.05;6.62;;;26.50;99.90;;;;;;1883095;75;21636;-69
2022/11/28 01:36:14;;;;;;;10.43;6.75;;;26.60;99.90;;;;;;1921437;73;21145;-69
2022/11/28 01:38:45;;;;;;;7.33;6.08;;;26.60;99.90;;;;;;1905662;73;21145;-71
2022/11/28 01:41:18;;;;;;;10.05;6.28;;;26.60;99.90;;;;;;1920729;73;21661;-69
2022/11/28 01:44:10;;;;;;;7.78;5.00;;;26.70;99.90;;;;;;1861824;75;21125;-70
2022/11/28 01:46:41;;;;;;;7.85;4.97;;;26.80;99.90;;;;;;1891492;75;21064;-70
2022/11/28 01:49:15;;;;;;;7.85;4.58;;;26.80;99.90;;;;;;1893869;74;21262;-70
2022/11/28 01:51:51;;;;;;;6.05;4.40;;;26.80;99.90;;;;;;1922437;73;21633;-70
2022/11/28 01:54:24;;;;;;;8.18;4.78;;;26.80;99.90;;;;;;1930982;73;21147;-70
2022/11/28 01:57:03;;;;;;;7.00;4.22;;;26.80;99.90;;;;;;1922061;73;21622;-70
2022/11/28 01:59:37;;;;;;;7.35;4.58;;;26.90;99.90;;;;;;1902441;73;21118;-71
2022/11/28 02:02:11;;;;;;;10.55;4.87;;;26.90;99.90;;;;;;1900967;75;21107;-71
2022/11/28 02:04:46;;;;;;;5.03;4.47;;;26.90;99.90;;;;;;1881247;75;21708;-71
2022/11/28 02:07:17;;;;;;;7.10;4.40;;;27.00;99.90;;;;;;1917539;73;21661;-71
2022/11/28 02:09:51;;;;;;;7.25;5.33;;;27.00;99.90;;;;;;1930146;73;21096;-72
2022/11/28 02:12:36;;;;;;;9.63;4.60;;;27.00;99.90;;;;;;1930012;73;21147;-70
2022/11/28 02:15:18;;;;;;;9.88;5.25;;;27.10;99.90;;;;;;1932114;73;21146;-69
2022/11/28 02:18:07;;;;;;;9.45;4.80;;;27.20;99.90;;;;;;1928172;73;21131;-69
2022/11/28 02:20:58;;;;;;;7.45;4.53;;;27.20;99.90;;;;;;1926638;73;21150;-71
2022/11/28 02:23:56;;;;;;;6.35;4.45;;;27.30;99.90;;;;;;1923850;73;21248;-69
2022/11/28 02:26:56;;;;;;;8.50;3.85;;;27.40;99.90;;;;;;1928263;73;21582;-70
2022/11/28 02:29:57;;;;;;;6.00;4.45;;;27.40;99.90;;;;;;1930131;73;21192;-70
2022/11/28 02:32:31;;;;;;;5.30;3.52;;;27.50;99.90;;;;;;1930643;73;21060;-70
2022/11/28 02:35:11;;;;;;;7.20;3.50;;;27.60;99.50;;;;;;1888965;75;21634;-71
2022/11/28 02:38:12;;;;;;;6.03;3.92;;;27.60;99.00;;;;;;1919475;73;21112;-71
2022/11/28 02:40:58;;;;;;;9.00;3.72;;;27.70;98.90;;;;;;1925814;73;22387;-70
2022/11/28 02:43:45;;;;;;;5.55;3.27;;;27.70;98.40;;;;;;1869778;75;21701;-69
2022/11/28 02:46:24;;;;;;;5.05;3.05;;;27.80;98.00;;;;;;1922935;73;21166;-71
2022/11/28 02:49:07;;;;;;;5.97;3.58;;;27.90;97.90;;;;;;1901260;74;21631;-70
2022/11/28 02:51:51;;;;;;;5.50;3.98;;;27.90;97.80;;;;;;1918179;73;21224;-70
2022/11/28 02:54:23;;;;;;;6.35;4.08;;;28.00;97.80;;;;;;1920633;73;21283;-70
2022/11/28 02:56:55;;;;;;;8.78;4.35;;;28.00;98.10;;;;;;1927278;73;21710;-71
2022/11/28 02:59:40;;;;;;;6.67;3.77;;;28.10;98.00;;;;;;1889698;74;21109;-71
2022/11/28 03:02:16;;;;;;;8.33;4.22;;;28.10;98.00;;;;;;1908432;73;21068;-71
2022/11/28 03:04:59;;;;;;;9.60;4.15;;;28.20;97.70;;;;;;1901945;73;21099;-70
2022/11/28 03:07:44;;;;;;;7.85;5.67;;;28.20;97.80;;;;;;1922156;73;21127;-73
2022/11/28 03:10:42;;;;;;;8.25;4.60;;;28.30;97.90;;;;;;1917357;73;21175;-70
2022/11/28 03:13:33;;;;;;;7.67;4.97;;;28.40;97.40;;;;;;1856099;76;21163;-70
2022/11/28 03:16:24;;;;;;;7.15;4.87;;;28.50;97.40;;;;;;1913104;73;21165;-69
2022/11/28 03:19:12;;;;;;;8.60;4.28;;;28.60;97.00;;;;;;1918492;73;21084;-71
2022/11/28 03:22:01;;;;;;;7.97;4.80;;;28.60;97.10;;;;;;1906988;74;21420;-70
2022/11/28 03:24:38;;;;;;;7.72;4.70;;;28.60;96.90;;;;;;1908471;73;21654;-70
2022/11/28 03:27:18;;;;;;;6.75;4.50;;;28.50;96.80;;;;;;1921664;73;21564;-70
2022/11/28 03:29:55;;;;;;;7.62;4.40;;;28.60;97.00;;;;;;1894313;74;21130;-70
2022/11/28 03:32:31;;;;;;;7.45;4.47;;;28.60;97.10;;;;;;1916919;73;21589;-70
2022/11/28 03:35:02;;;;;;;;;;;28.50;97.00;;;;;;1924587;73;21226;-68
2022/11/28 03:37:37;;;;;;;6.42;3.92;;;28.50;97.20;;;;;;1924989;72;20127;-69
2022/11/28 03:40:11;;;;;;;6.00;3.70;;;28.60;96.70;;;;;;1903208;74;21103;-71
2022/11/28 03:42:45;;;;;;;7.58;4.28;;;28.70;96.40;;;;;;1868207;75;21167;-72
2022/11/28 03:45:23;;;;;;;9.33;4.20;;;28.90;96.00;;;;;;1932865;72;21687;-70
2022/11/28 03:48:02;;;;;;;6.20;3.90;;;29.10;95.70;;;;;;1923968;72;21772;-70
2022/11/28 03:50:35;;;;;;;5.53;3.67;;;29.30;95.10;;;;;;1921058;72;21471;-69
2022/11/28 03:53:11;;;;;;;6.60;4.28;;;29.40;94.70;;;;;;1938202;72;21139;-71
2022/11/28 03:56:07;;;;;;;5.72;3.80;;;29.70;94.30;;;;;;1937412;73;21138;-72
2022/11/28 03:58:46;;;;;;;7.62;3.62;;;29.80;93.90;;;;;;1880106;75;21056;-73
2022/11/28 04:01:22;;;;;;;5.70;2.95;;;29.90;94.10;;;;;;1853843;76;21252;-72
2022/11/28 04:04:04;;;;;;;9.33;3.85;;;30.10;93.70;;;;;;1860672;75;21087;-71
2022/11/28 04:06:46;;;;;;;6.80;3.50;;;30.20;92.50;;;;;;1877122;76;21200;-72
2022/11/28 04:09:31;;;;;;;8.30;3.83;;;30.40;92.40;;;;;;1884784;75;21122;-69
2022/11/28 04:12:04;;;;;;;5.75;3.75;;;30.40;92.30;;;;;;1870253;75;21124;-71
2022/11/28 04:14:44;;;;;;;7.00;3.55;;;30.60;92.50;;;;;;1836961;77;21452;-70
2022/11/28 04:17:29;;;;;;;6.53;2.98;;;30.70;92.30;;;;;;1877964;74;21187;-71
2022/11/28 04:20:05;;;;;;;5.17;3.60;;;30.80;91.80;;;;;;1874985;75;22021;-71
2022/11/28 04:22:38;;;;;;;5.20;3.05;;;31.00;91.60;;;;;;1870282;75;21128;-71
2022/11/28 04:25:12;;;;;;;3.85;2.90;;;31.10;91.40;;;;;;1877245;75;21151;-71
2022/11/28 04:27:48;;;;;;;7.15;3.85;;;31.20;90.60;;;;;;1873270;75;21236;-72
2022/11/28 04:30:19;;;;;;;5.33;3.42;;;31.30;90.90;;;;;;1851531;76;21121;-71
2022/11/28 04:32:57;;;;;;;5.25;4.00;;;31.40;91.20;;;;;;1878295;74;21120;-73
2022/11/28 04:35:39;;;;;;;8.95;4.28;;;31.50;91.20;;;;;;1876195;74;21129;-71
2022/11/28 04:38:13;;;;;;;6.97;3.90;;;31.60;91.00;;;;;;1831775;76;21154;-72
2022/11/28 04:40:46;;;;;;;6.83;3.75;;;31.60;91.00;;;;;;1841652;76;21103;-72
2022/11/28 04:43:26;;;;;;;7.00;3.90;;;31.70;91.00;;;;;;1873210;75;21187;-70
2022/11/28 04:46:02;;;;;;;6.15;3.50;;;31.80;90.80;;;;;;1866566;74;21151;-70
2022/11/28 04:48:34;;;;;;;8.48;3.50;;;31.90;90.00;;;;;;1885313;74;21194;-71
2022/11/28 04:51:21;;;;;;;5.50;3.62;;;31.80;89.20;;;;;;1827371;77;21219;-71
2022/11/28 04:54:00;;;;;;;7.83;3.40;;;31.70;89.70;;;;;;1857629;75;21142;-71
2022/11/28 04:56:49;;;;;;;6.70;3.60;;;31.70;89.50;;;;;;1898663;74;21110;-72
2022/11/28 04:59:25;;;;;;;6.70;4.50;;;31.70;89.40;;;;;;1848366;76;21149;-72
2022/11/28 05:01:58;;;;;;;5.58;3.35;;;31.90;89.20;;;;;;1832065;77;21652;-71
2022/11/28 05:04:29;;;;;;;6.17;3.17;;;32.00;86.70;;;;;;1861904;76;21100;-72
2022/11/28 05:07:05;;;;;;;4.10;2.70;;;32.00;86.50;;;;;;1878203;75;21228;-71
2022/11/28 05:09:37;;;;;;;5.23;2.90;;;32.10;85.60;;;;;;1854071;75;21237;-72
2022/11/28 05:12:09;;;;;;;7.15;3.65;;;32.00;85.80;;;;;;1881163;75;21129;-73
2022/11/28 05:14:41;;;;;;;5.50;3.60;;;31.80;85.60;;;;;;1824614;77;21149;-70
2022/11/28 05:17:13;;;;;;;6.90;3.50;;;31.60;86.70;;;;;;1860635;75;21102;-71
2022/11/28 05:19:45;;;;;;;3.70;2.80;;;31.40;87.30;;;;;;1861883;76;21681;-71
2022/11/28 05:22:16;;;;;;;4.37;2.55;;;31.30;87.10;;;;;;1890274;75;21111;-70
2022/11/28 05:24:47;;;;;;;3.90;2.98;;;31.20;87.00;;;;;;1881158;75;21123;-70
2022/11/28 05:27:18;;;;;;;7.10;3.60;;;31.10;88.00;;;;;;1886758;75;21160;-70
2022/11/28 05:29:52;;;;;;;5.33;3.08;;;31.00;88.60;;;;;;1845289;75;21126;-69
2022/11/28 05:32:22;;;;;;;6.03;2.50;;;31.00;88.40;;;;;;1845114;76;21200;-71
2022/11/28 05:34:53;;;;;;;6.95;2.90;;;30.90;87.80;;;;;;1830206;77;21967;-71
2022/11/28 05:37:24;;;;;;;5.08;2.70;;;30.80;89.20;;;;;;1873687;75;21268;-72
2022/11/28 05:39:55;;;;;;;4.22;3.20;;;30.80;88.90;;;;;;1877438;75;21116;-72
2022/11/28 05:42:27;;;;;;;5.00;2.90;;;30.80;89.30;;;;;;1850777;77;21137;-72
2022/11/28 05:44:58;;;;;;;6.55;3.55;;;30.70;88.40;;;;;;1875856;74;21208;-71
2022/11/28 05:47:30;;;;;;;5.60;3.10;;;30.70;89.20;;;;;;1776139;80;21230;-70
2022/11/28 05:50:03;;;;;;;7.15;3.02;;;30.80;88.30;;;;;;1808459;78;21119;-71
2022/11/28 05:52:34;;;;;;;5.58;3.25;;;30.80;87.30;;;;;;1877604;75;21181;-71
2022/11/28 05:55:06;;;;;;;3.62;2.75;;;30.80;87.50;;;;;;1865767;75;21178;-71
2022/11/28 05:57:37;;;;;;;3.55;2.33;;;30.80;87.20;;;;;;1885552;75;21178;-71
2022/11/28 06:00:09;;;;;;;4.22;2.42;;;30.70;87.50;;;;;;1865075;75;21873;-72
2022/11/28 06:02:40;;;;;;;4.28;2.70;;;30.70;87.60;;;;;;1857531;75;21237;-71
2022/11/28 06:05:10;;;;;;;4.65;2.85;;;30.70;87.80;;;;;;1890272;74;21134;-72
2022/11/28 06:07:43;;;;;;;7.97;3.87;;;30.80;86.90;;;;;;1871929;75;21649;-73
2022/11/28 06:10:18;;;;;;;5.35;3.10;;;31.00;86.00;;;;;;1872361;74;21684;-73
2022/11/28 06:12:49;;;;;;;6.65;3.60;;;31.00;86.10;;;;;;1877441;75;21135;-71
2022/11/28 06:15:20;;;;;;;4.20;2.55;;;31.10;86.20;;;;;;1851004;76;21143;-70
2022/11/28 06:17:51;;;;;;;7.08;3.37;;;31.10;86.20;;;;;;1876215;76;21072;-72
2022/11/28 06:20:22;;;;;;;5.20;2.58;;;31.20;86.40;;;;;;1848863;76;21172;-72
2022/11/28 06:22:54;;;;;;;4.72;2.25;;;31.20;84.80;;;;;;1874429;74;21515;-72
2022/11/28 06:25:25;;;;;;;4.78;2.70;;;31.30;85.10;;;;;;1861920;75;21150;-73
2022/11/28 06:27:56;;;;;;;4.50;3.02;;;31.20;84.90;;;;;;1871534;75;21292;-72
2022/11/28 06:30:27;;;;;;;4.70;3.50;;;31.10;85.80;;;;;;1879993;75;21158;-73
2022/11/28 06:32:58;;;;;;;5.70;3.95;;;31.00;86.20;;;;;;1884703;75;21248;-71
2022/11/28 06:35:29;;;;;;;6.83;4.75;;;30.90;87.50;;;;;;1881878;75;21232;-71
2022/11/28 06:38:00;;;;;;;6.12;4.25;;;30.90;87.80;;;;;;1873271;75;21091;-70
2022/11/28 06:40:31;;;;;;;4.37;2.58;;;30.80;87.00;;;;;;1874961;74;21324;-72
2022/11/28 06:43:02;;;;;;;3.77;2.77;;;30.80;86.50;;;;;;1856432;74;21623;-72
2022/11/28 06:45:36;;;;;;;8.33;3.08;;;30.70;87.10;;;;;;1858876;75;21139;-71
2022/11/28 06:48:07;;;;;;;6.53;3.55;;;30.60;87.60;;;;;;1873870;75;21129;-72
2022/11/28 06:50:39;;;;;;;47.27;9.28;;;30.60;88.00;;;;;;1869891;75;21148;-72
2022/11/28 06:53:10;;;;;;;9.65;5.83;;;30.60;88.40;;;;;;1859987;75;21165;-72
2022/11/28 06:55:42;;;;;;;12.30;4.87;;;30.50;87.70;;;;;;1877588;74;21108;-71
2022/11/28 06:58:15;;;;;;;5.25;3.45;;;30.60;89.50;;;;;;1873874;75;21936;-71
2022/11/28 07:00:47;;;;;;;4.87;2.65;;;30.80;88.60;;;;;;1881320;75;21658;-72
2022/11/28 07:03:20;;;;;;;4.28;2.50;;;31.00;87.60;;;;;;1893705;75;21086;-71
2022/11/28 07:05:52;;;;;;;4.50;2.83;;;31.10;86.40;;;;;;1899503;75;21153;-73
2022/11/28 07:08:24;;;;;;;5.22;3.90;;;31.20;86.30;;;;;;1865595;76;21150;-72
2022/11/28 07:10:56;;;;;;;5.42;3.80;;;31.30;85.40;;;;;;1872384;76;21173;-73
2022/11/28 07:13:28;;;;;;;6.42;3.25;;;31.40;85.90;;;;;;1866244;76;21737;-73
2022/11/28 07:16:00;;;;;;;3.83;2.30;;;31.50;85.40;;;;;;1871800;75;22043;-73
2022/11/28 07:18:31;;;;;;;5.65;3.15;;;31.40;84.70;;;;;;1873951;76;21616;-73
2022/11/28 07:21:02;;;;;;;5.30;2.60;;;31.40;85.40;;;;;;1857266;75;21215;-72
2022/11/28 07:23:33;;;;;;;4.03;3.20;;;31.30;85.10;;;;;;1847330;77;22332;-73
2022/11/28 07:26:05;;;;;;;4.80;3.25;;;31.30;85.50;;;;;;1867663;76;21181;-73
2022/11/28 07:28:37;;;;;;;4.20;2.20;;;31.30;87.10;;;;;;1865802;76;21706;-73
2022/11/28 07:31:13;;;;;;;5.70;2.67;;;31.40;85.50;;;;;;1858551;77;21148;-73
2022/11/28 07:33:46;;;;;;;5.17;2.58;;;31.50;85.00;;;;;;1868256;75;21218;-73
2022/11/28 07:36:21;;;;;;;;;;;31.60;85.70;;;;;;1827366;78;21171;-73
2022/11/28 07:38:57;;;;;;;5.58;3.30;;;31.60;89.50;;;;;;1876522;76;20170;-73
2022/11/28 07:41:29;;;;;;;4.80;2.47;;;31.70;84.80;;;;;;1855489;77;21113;-73
2022/11/28 07:44:01;;;;;;;4.50;2.52;;;31.80;84.00;;;;;;1864836;75;21251;-74
2022/11/28 07:46:33;;;;;;;5.72;2.65;;;31.80;82.90;;;;;;1860212;76;21148;-72
2022/11/28 07:49:04;;;;;;;10.05;3.30;;;31.80;81.50;;;;;;1880320;75;21216;-73
2022/11/28 07:51:38;;;;;;;3.70;2.55;;;31.90;82.40;;;;;;1875512;74;21679;-71
2022/11/28 07:54:10;;;;;;;3.80;2.60;;;31.90;82.60;;;;;;1837898;75;21260;-72
2022/11/28 07:56:42;;;;;;;4.12;2.85;;;32.00;82.70;;;;;;1806432;77;21148;-73
2022/11/28 07:59:20;;;;;;;3.67;2.55;;;32.10;82.50;;;;;;1860573;74;21571;-73
2022/11/28 08:01:52;;;;;;;5.78;2.67;;;32.20;80.70;;;;;;1871517;75;21231;-72
2022/11/28 08:04:24;;;;;;;3.87;2.80;;;32.20;81.80;;;;;;1898184;74;21134;-73
2022/11/28 08:06:57;;;;;;;4.45;2.37;;;32.20;81.50;;;;;;1885148;75;21150;-73
2022/11/28 08:09:28;;;;;;;5.22;2.80;;;32.20;81.20;;;;;;1872391;75;21163;-73
2022/11/28 08:11:59;;;;;;;5.33;2.70;;;32.20;80.60;;;;;;1875083;75;21119;-73
2022/11/28 08:14:31;;;;;;;4.62;2.90;;;32.10;81.60;;;;;;1878600;75;21281;-72
2022/11/28 08:17:02;;;;;;;8.40;3.33;;;32.10;81.80;;;;;;1877559;75;21158;-72
2022/11/28 08:19:34;;;;;;;4.55;2.60;;;32.10;82.10;;;;;;1851268;76;21383;-72
2022/11/28 08:22:05;;;;;;;5.80;2.50;;;32.10;82.10;;;;;;1845513;76;21216;-72
2022/11/28 08:24:38;;;;;;;3.75;2.70;;;32.10;81.70;;;;;;1839212;77;21059;-73
2022/11/28 08:27:11;;;;;;;5.45;2.55;;;32.00;81.60;;;;;;1831123;77;21211;-72
2022/11/28 08:29:42;;;;;;;3.37;2.83;;;32.00;81.60;;;;;;1847083;76;21598;-72
2022/11/28 08:32:14;;;;;;;5.53;3.02;;;32.00;81.60;;;;;;1838240;76;21141;-72
2022/11/28 08:34:46;;;;;;;4.75;3.17;;;32.00;81.80;;;;;;1837858;76;21149;-72
2022/11/28 08:37:17;;;;;;;3.62;2.92;;;32.00;81.60;;;;;;1844354;76;21156;-72
2022/11/28 08:39:49;;;;;;;10.18;3.20;;;32.00;82.10;;;;;;1816425;77;21128;-72
2022/11/28 08:42:20;;;;;;;7.00;2.92;;;32.00;81.70;;;;;;1876736;75;21135;-72
2022/11/28 08:44:51;;;;;;;5.15;3.67;;;32.00;82.30;;;;;;1872542;75;21629;-72
2022/11/28 08:47:22;;;;;;;6.08;3.22;;;32.00;82.70;;;;;;1891716;75;21110;-72
2022/11/28 08:49:53;;;;;;;5.17;3.52;;;32.00;81.40;;;;;;1868052;75;21119;-72
2022/11/28 08:52:24;;;;;;;5.45;3.37;;;32.00;81.60;;;;;;1862545;75;21170;-73
2022/11/28 08:54:55;;;;;;;4.83;2.98;;;32.00;82.20;;;;;;1839977;75;21167;-73
2022/11/28 08:57:26;;;;;;;6.75;4.15;;;32.00;82.20;;;;;;1853108;77;21125;-73
2022/11/28 08:59:57;;;;;;;11.08;3.35;;;32.00;81.70;;;;;;1822664;77;21163;-72
2022/11/28 09:02:28;;;;;;;7.42;4.25;;;32.00;81.20;;;;;;1882269;75;21188;-72
2022/11/28 09:05:00;;;;;;;8.55;4.47;;;32.00;81.50;;;;;;1843007;76;21236;-72
2022/11/28 09:07:31;;;;;;;4.47;3.40;;;32.00;81.10;;;;;;1797371;78;21283;-73
2022/11/28 09:10:03;;;;;;;6.92;3.30;;;32.00;81.60;;;;;;1866170;74;21076;-73
2022/11/28 09:12:34;;;;;;;4.90;3.25;;;32.00;81.30;;;;;;1876502;75;21156;-73
2022/11/28 09:15:06;;;;;;;5.87;3.33;;;32.00;81.40;;;;;;1836364;76;21073;-73
2022/11/28 09:17:37;;;;;;;4.83;2.80;;;32.00;80.40;;;;;;1883405;74;21599;-72
2022/11/28 09:20:09;;;;;;;9.35;3.70;;;32.00;80.50;;;;;;1846854;77;21218;-73
2022/11/28 09:22:41;;;;;;;7.47;2.90;;;32.00;81.20;;;;;;1871402;76;21103;-72
2022/11/28 09:25:12;;;;;;;5.08;3.35;;;32.00;81.30;;;;;;1826295;77;21395;-72
2022/11/28 09:27:44;;;;;;;5.92;2.45;;;31.90;81.90;;;;;;1806220;77;21171;-74
2022/11/28 09:30:15;;;;;;;9.38;3.25;;;31.90;81.90;;;;;;1873389;74;21208;-72
2022/11/28 09:32:48;;;;;;;9.40;4.42;;;31.90;81.90;;;;;;1878248;75;21154;-73
2022/11/28 09:35:19;;;;;;;8.10;3.58;;;31.80;82.00;;;;;;1868869;75;21155;-71
2022/11/28 09:37:51;;;;;;;4.92;2.90;;;31.80;81.30;;;;;;1871105;75;21095;-74
2022/11/28 09:40:24;;;;;;;5.12;2.75;;;31.80;81.30;;;;;;1883371;75;21626;-72
2022/11/28 09:42:57;;;;;;;4.37;3.08;;;31.70;81.70;;;;;;1854322;76;21330;-72
2022/11/28 09:45:38;;;;;;;6.28;4.05;;;31.70;82.00;;;;;;1894209;75;21079;-71
2022/11/28 09:48:25;;;;;;;7.25;2.75;;;31.60;82.30;;;;;;1895429;74;21064;-72
2022/11/28 09:50:59;;;;;;;6.08;3.10;;;31.50;82.20;;;;;;1859968;75;21179;-71
2022/11/28 09:53:32;;;;;;;6.42;3.60;;;31.40;82.90;;;;;;1889843;75;21157;-72
2022/11/28 09:59:08;;;;;;;5.78;3.12;;;31.40;83.30;;;;;;1828478;77;21639;-72
2022/11/28 10:01:45;;;;;;;4.65;3.12;;;31.30;83.40;;;;;;1873093;74;21142;-71
2022/11/28 10:04:35;;;;;;;5.17;2.85;;;31.30;83.60;;;;;;1829985;77;21125;-72
2022/11/28 10:07:20;;;;;;;4.65;2.83;;;31.20;83.60;;;;;;1850409;76;21109;-71
2022/11/28 10:10:11;;;;;;;3.93;2.87;;;31.10;83.80;;;;;;1864067;74;21197;-71
2022/11/28 10:13:04;;;;;;;8.13;3.02;;;31.10;84.20;;;;;;1815410;77;21256;-71
2022/11/28 10:15:53;;;;;;;5.35;3.15;;;31.10;84.30;;;;;;1850075;76;21117;-72
2022/11/28 10:18:48;;;;;;;5.67;2.90;;;31.00;84.20;;;;;;1850233;76;21133;-73
2022/11/28 10:21:31;;;;;;;8.15;3.72;;;31.00;84.50;;;;;;1811064;77;21135;-73
2022/11/28 10:24:05;;;;;;;5.42;3.47;;;30.90;84.60;;;;;;1798681;77;21139;-72
2022/11/28 10:26:38;;;;;;;9.00;3.60;;;30.90;84.80;;;;;;1837862;76;21272;-71
2022/11/28 10:29:26;;;;;;;5.03;3.27;;;30.80;85.20;;;;;;1854757;75;21095;-72
2022/11/28 10:32:00;;;;;;;6.55;3.15;;;30.80;85.40;;;;;;1858995;76;21100;-72
2022/11/28 10:34:39;;;;;;;7.40;4.12;;;30.80;85.80;;;;;;1844531;76;21225;-73
2022/11/28 10:37:22;;;;;;;7.00;4.20;;;30.70;86.00;;;;;;1832724;76;21190;-73
2022/11/28 10:39:53;;;;;;;9.10;4.35;;;30.60;86.20;;;;;;1812833;76;21178;-73
2022/11/28 10:42:46;;;;;;;10.03;4.00;;;30.60;86.50;;;;;;1827036;77;21056;-72
2022/11/28 10:45:36;;;;;;;7.20;4.17;;;30.60;86.60;;;;;;1859619;74;21271;-72
2022/11/28 10:48:12;;;;;;;8.25;4.08;;;30.60;86.90;;;;;;1801552;78;21510;-71
2022/11/28 10:51:00;;;;;;;6.47;3.95;;;30.50;87.10;;;;;;1858191;76;21575;-73
2022/11/28 10:53:36;;;;;;;6.60;4.20;;;30.50;87.20;;;;;;1839053;75;21230;-74
2022/11/28 10:56:11;;;;;;;;;;;30.50;87.40;;;;;;1866198;74;21245;-73
2022/11/28 10:58:59;;;;;;;8.30;3.83;;;30.50;87.70;;;;;;1845598;76;20564;-73
2022/11/28 11:01:35;;;;;;;8.43;4.28;;;30.50;87.70;;;;;;1840759;76;21103;-73
2022/11/28 11:04:08;;;;;;;8.75;4.20;;;30.40;87.70;;;;;;1848382;75;22465;-73
2022/11/28 11:06:39;;;;;;;8.98;4.85;;;30.40;87.90;;;;;;1846663;74;21118;-73
2022/11/28 11:09:14;;;;;;;10.20;4.92;;;30.40;88.20;;;;;;1852482;75;21166;-73
2022/11/28 11:12:06;;;;;;;8.68;4.45;;;30.30;88.20;;;;;;1852100;75;21225;-73
2022/11/28 11:14:40;;;;;;;8.03;3.55;;;30.30;88.30;;;;;;1832473;76;21190;-72
2022/11/28 11:17:29;;;;;;;8.63;4.20;;;30.30;88.30;;;;;;1853517;76;21636;-73
2022/11/28 11:20:05;;;;;;;8.80;4.75;;;30.30;88.40;;;;;;1844877;76;21188;-73
2022/11/28 11:22:38;;;;;;;9.13;5.90;;;30.30;88.60;;;;;;1852304;75;21194;-72
2022/11/28 11:25:14;;;;;;;9.10;4.80;;;30.30;88.80;;;;;;1810169;77;21262;-73
2022/11/28 11:27:56;;;;;;;13.58;6.20;;;30.30;89.00;;;;;;1822275;78;21197;-73
2022/11/28 11:30:32;;;;;;;9.10;5.28;;;30.30;89.40;;;;;;1832947;77;21137;-73
2022/11/28 11:33:05;;;;;;;11.88;5.72;;;30.30;89.50;;;;;;1853229;76;21209;-73
2022/11/28 11:35:38;;;;;;;16.97;5.95;;;30.30;89.90;;;;;;1832701;78;21076;-72
2022/11/28 11:38:23;;;;;;;10.48;5.70;;;30.30;89.90;;;;;;1854113;75;21166;-71
2022/11/28 11:40:55;;;;;;;8.23;5.35;;;30.20;90.10;;;;;;1846599;75;21205;-72
2022/11/28 11:43:31;;;;;;;10.93;5.75;;;30.20;90.20;;;;;;1854686;76;21245;-72
2022/11/28 11:46:13;;;;;;;13.05;6.53;;;30.20;90.40;;;;;;1854592;75;21122;-71
2022/11/28 11:48:49;;;;;;;12.60;6.72;;;30.20;90.30;;;;;;1807409;78;21111;-73
2022/11/28 11:51:29;;;;;;;15.08;6.80;;;30.20;90.30;;;;;;1836260;76;21185;-72
2022/11/28 11:54:15;;;;;;;13.58;6.72;;;30.20;90.40;;;;;;1854760;76;21197;-72
2022/11/28 11:56:48;;;;;;;10.28;6.95;;;30.20;90.40;;;;;;1849010;76;21224;-73
2022/11/28 11:59:41;;;;;;;15.00;7.35;;;30.10;90.30;;;;;;1804237;76;21197;-73
2022/11/28 12:02:17;;;;;;;10.38;6.47;;;30.10;90.50;;;;;;1850512;76;21764;-73
2022/11/28 12:04:50;;;;;;;12.60;7.10;;;30.10;90.40;;;;;;1801187;78;21691;-74
2022/11/28 12:07:40;;;;;;;12.63;6.92;;;30.00;90.50;;;;;;1843874;76;21144;-73
2022/11/28 12:10:14;;;;;;;8.33;6.00;;;29.90;90.40;;;;;;1851320;76;21266;-73
2022/11/28 12:12:47;;;;;;;11.38;6.55;;;29.90;90.40;;;;;;1841171;76;21154;-73
2022/11/28 12:15:47;;;;;;;14.05;6.65;;;29.90;90.40;;;;;;1853094;76;21225;-73
2022/11/28 12:18:39;;;;;;;9.55;6.03;;;29.90;90.40;;;;;;1813824;77;21095;-72
2022/11/28 12:21:13;;;;;;;9.90;5.80;;;29.90;90.30;;;;;;1842238;76;21159;-73
2022/11/28 12:24:00;;;;;;;7.17;5.83;;;29.90;90.40;;;;;;1862448;75;21147;-73
2022/11/28 12:26:45;;;;;;;10.20;5.97;;;29.80;90.40;;;;;;1861443;76;21187;-72
2022/11/28 12:29:42;;;;;;;9.25;5.67;;;29.80;90.40;;;;;;1858149;75;21550;-73
2022/11/28 12:32:34;;;;;;;11.85;6.05;;;29.80;90.40;;;;;;1820961;77;21212;-73
2022/11/28 12:35:23;;;;;;;12.35;6.00;;;29.70;90.50;;;;;;1846040;75;21095;-71
2022/11/28 12:38:19;;;;;;;11.48;6.50;;;29.70;90.90;;;;;;1846800;76;21142;-70
2022/11/28 12:41:07;;;;;;;11.25;6.15;;;29.70;91.00;;;;;;1823975;78;21173;-72
2022/11/28 12:43:54;;;;;;;21.82;7.67;;;29.70;91.20;;;;;;1827523;77;21133;-80
2022/11/28 12:46:43;;;;;;;16.23;6.83;;;29.70;91.30;;;;;;1830011;77;21172;-82
2022/11/28 12:49:52;;;;;;;14.33;6.20;;;29.70;91.40;;;;;;1831967;78;21118;-82
2022/11/28 12:52:29;;;;;;;15.78;6.50;;;29.70;91.40;;;;;;1851745;76;21641;-81
2022/11/28 12:55:03;;;;;;;;;;;29.70;91.30;;;;;;1853832;76;21158;-81
2022/11/28 12:57:55;;;;;;;17.12;7.60;;;29.70;91.30;;;;;;1860845;76;20220;-81
2022/11/28 13:00:28;;;;;;;13.00;7.45;;;29.70;91.50;;;;;;1843923;76;21784;-82
2022/11/28 13:03:21;;;;;;;11.28;6.58;;;29.70;91.50;;;;;;1844609;76;21139;-85
2022/11/28 13:06:17;;;;;;;18.82;6.80;;;29.70;91.50;;;;;;1850182;76;21114;-85
2022/11/28 13:08:50;;;;;;;18.37;7.60;;;29.70;91.40;;;;;;1872813;75;21614;-85
2022/11/28 13:11:33;;;;;;;20.92;6.97;;;29.70;91.30;;;;;;1864293;76;21275;-85
2022/11/28 13:14:12;;;;;;;21.00;6.92;;;29.70;91.40;;;;;;1827404;76;21212;-84
2022/11/28 13:16:52;;;;;;;11.08;6.03;;;29.70;91.60;;;;;;1841166;76;21174;-84
2022/11/28 13:19:47;;;;;;;11.97;6.08;;;29.60;91.50;;;;;;1838867;76;21155;-86
2022/11/28 13:22:41;;;;;;;12.25;6.60;;;29.60;91.40;;;;;;1872010;76;21084;-83
2022/11/28 13:25:26;;;;;;;10.67;6.03;;;29.60;91.50;;;;;;1807763;77;21200;-84
2022/11/28 13:28:02;;;;;;;15.88;5.95;;;29.60;91.60;;;;;;1832386;77;21146;-85
2022/11/28 13:30:35;;;;;;;14.63;6.78;;;29.50;91.60;;;;;;1823718;76;21559;-86
2022/11/28 13:33:39;;;;;;;11.63;6.53;;;29.50;91.70;;;;;;1817043;77;21150;-85
2022/11/28 13:36:12;;;;;;;15.30;6.20;;;29.50;91.80;;;;;;1826122;76;21130;-85
2022/11/28 13:39:04;;;;;;;11.75;5.97;;;29.50;91.80;;;;;;1828907;77;21120;-84